Time;durP1;ratioP1;P1;durP2;ratioP2;P2;SDS_P1;SDS_P2;PMS_P1;PMS_P2;Temp;Humidity;BMP_temperature;BMP_pressure;BME280_temperature;BME280_humidity;BME280_pressure;Samples;Min_cycle;Max_cycle;Signal;HPM_P1;HPM_P2
2021/03/15 00:01:39;;;;;;;7.20;3.90;;;;;;;3.73;98.45;95933.38;5078751;28;20532;-88
2021/03/15 00:04:07;;;;;;;4.33;3.30;;;;;;;3.77;98.29;95931.16;5077754;28;20508;-86
2021/03/15 00:06:33;;;;;;;5.70;3.77;;;;;;;3.77;98.14;95934.53;5079256;28;20453;-88
2021/03/15 00:09:00;;;;;;;11.90;3.83;;;;;;;3.79;98.12;95926.00;5078566;28;20433;-88
2021/03/15 00:11:26;;;;;;;5.73;4.00;;;;;;;3.85;97.88;95937.38;5079161;28;20445;-85
2021/03/15 00:13:52;;;;;;;5.30;3.23;;;;;;;3.79;97.59;95929.41;5077711;28;20447;-85
2021/03/15 00:16:18;;;;;;;9.53;4.00;;;;;;;3.80;97.67;95924.81;5076998;28;20572;-84
2021/03/15 00:18:44;;;;;;;4.60;3.20;;;;;;;3.68;97.54;95921.56;5077315;28;20504;-85
2021/03/15 00:21:10;;;;;;;10.80;4.17;;;;;;;3.68;97.42;95921.56;5076925;28;20449;-85
2021/03/15 00:23:36;;;;;;;11.63;3.90;;;;;;;3.60;97.51;95917.31;5077181;28;20442;-86
2021/03/15 00:26:03;;;;;;;5.20;3.37;;;;;;;3.56;97.95;95914.19;5077579;28;20465;-86
2021/03/15 00:28:29;;;;;;;4.97;4.20;;;;;;;3.59;97.70;95927.25;5077556;28;20438;-86
2021/03/15 00:30:55;;;;;;;5.07;3.53;;;;;;;3.54;97.61;95909.34;5077638;28;20506;-86
2021/03/15 00:33:23;;;;;;;6.90;4.40;;;;;;;3.44;97.41;95907.56;5077457;28;20445;-86
2021/03/15 00:35:49;;;;;;;8.60;3.83;;;;;;;3.46;97.71;95913.84;5077748;28;20473;-85
2021/03/15 00:38:15;;;;;;;4.20;3.30;;;;;;;3.43;97.84;95901.50;5077982;28;20576;-86
2021/03/15 00:40:42;;;;;;;5.53;3.67;;;;;;;3.34;97.90;95915.19;5078047;28;20491;-87
2021/03/15 00:43:09;;;;;;;5.97;3.97;;;;;;;3.31;98.03;95905.53;5077649;28;20464;-87
2021/03/15 00:45:35;;;;;;;7.73;4.50;;;;;;;3.28;98.33;95911.88;5077703;28;20513;-85
2021/03/15 00:48:01;;;;;;;7.60;3.30;;;;;;;3.25;98.55;95907.53;5076996;28;20416;-86
2021/03/15 00:50:29;;;;;;;5.67;3.53;;;;;;;3.14;99.12;95904.97;5076800;28;20444;-85
2021/03/15 00:52:57;;;;;;;4.73;3.37;;;;;;;3.21;99.52;95904.44;5076623;28;20445;-85
2021/03/15 00:55:23;;;;;;;6.70;4.20;;;;;;;3.23;98.90;95892.03;5077162;28;20509;-86
2021/03/15 00:57:50;;;;;;;6.57;4.37;;;;;;;3.28;98.64;95897.81;5077330;28;20534;-86
2021/03/15 01:00:22;;;;;;;16.10;8.50;;;;;;;3.21;98.89;95907.81;5077549;28;20520;-86
2021/03/15 01:02:48;;;;;;;12.40;5.00;;;;;;;3.23;98.67;95904.63;5078905;28;20414;-84
2021/03/15 01:05:14;;;;;;;10.63;5.10;;;;;;;3.22;98.76;95903.94;5078341;28;20534;-84
2021/03/15 01:07:40;;;;;;;9.87;5.70;;;;;;;3.18;99.01;95897.44;5078053;28;20448;-84
2021/03/15 01:10:10;;;;;;;10.53;5.77;;;;;;;3.24;98.49;95898.81;5078349;28;20437;-83
2021/03/15 01:12:36;;;;;;;11.83;6.30;;;;;;;3.21;98.31;95899.09;5078239;28;20554;-83
2021/03/15 01:15:07;;;;;;;12.03;4.90;;;;;;;3.13;98.88;95903.56;5079024;28;20503;-83
2021/03/15 01:17:34;;;;;;;9.60;4.27;;;;;;;3.08;99.40;95905.03;5078014;28;20510;-85
2021/03/15 01:20:00;;;;;;;8.60;5.20;;;;;;;3.14;98.66;95895.03;5078282;28;20536;-86
2021/03/15 01:22:26;;;;;;;5.73;3.97;;;;;;;3.01;99.23;95892.28;5076887;28;20501;-86
2021/03/15 01:24:52;;;;;;;7.40;4.10;;;;;;;2.89;99.61;95893.63;5077769;28;20441;-85
2021/03/15 01:27:18;;;;;;;6.00;4.43;;;;;;;2.87;99.83;95895.34;5076743;28;20587;-85
2021/03/15 01:29:44;;;;;;;8.83;5.00;;;;;;;2.86;99.89;95904.53;5077289;28;20513;-84
2021/03/15 01:32:10;;;;;;;6.03;4.27;;;;;;;2.79;99.74;95889.13;5076657;28;20811;-85
2021/03/15 01:34:37;;;;;;;7.67;4.90;;;;;;;2.73;99.86;95889.16;5077036;28;20769;-85
2021/03/15 01:37:03;;;;;;;8.00;5.03;;;;;;;2.73;100.00;95886.50;5077409;28;20485;-86
2021/03/15 01:39:31;;;;;;;6.90;4.40;;;;;;;2.63;100.00;95880.78;5076617;28;20524;-85
2021/03/15 01:41:57;;;;;;;9.33;4.80;;;;;;;2.56;100.00;95875.31;5077225;28;20949;-86
2021/03/15 01:44:23;;;;;;;9.70;5.57;;;;;;;2.54;100.00;95875.78;5077002;28;20441;-85
2021/03/15 01:46:49;;;;;;;8.07;4.60;;;;;;;2.46;100.00;95872.25;5076807;28;20549;-86
2021/03/15 01:49:15;;;;;;;8.10;5.20;;;;;;;2.47;100.00;95865.72;5077220;28;20517;-86
2021/03/15 01:51:42;;;;;;;12.20;6.37;;;;;;;2.45;100.00;95856.75;5077520;28;20480;-86
2021/03/15 01:54:09;;;;;;;9.10;5.57;;;;;;;2.47;100.00;95855.06;5077042;28;20451;-85
2021/03/15 01:56:36;;;;;;;8.60;5.20;;;;;;;2.47;100.00;95859.66;5077336;28;20503;-86
2021/03/15 01:59:02;;;;;;;7.27;5.07;;;;;;;2.48;100.00;95856.47;5078926;28;20480;-86
2021/03/15 02:01:29;;;;;;;13.30;5.50;;;;;;;2.48;100.00;95855.75;5078412;28;20476;-86
2021/03/15 02:03:55;;;;;;;6.47;4.20;;;;;;;2.44;100.00;95858.72;5078888;28;20535;-86
2021/03/15 02:06:22;;;;;;;12.67;6.53;;;;;;;2.47;100.00;95851.66;5085291;28;20537;-87
2021/03/15 02:08:49;;;;;;;7.27;5.03;;;;;;;2.44;100.00;95844.69;5078382;28;20675;-85
2021/03/15 02:11:21;;;;;;;5.90;4.50;;;;;;;2.37;100.00;95845.22;5087090;28;20508;-85
2021/03/15 02:14:05;;;;;;;10.70;5.13;;;;;;;2.32;100.00;95832.69;5093068;28;20516;-85
2021/03/15 02:16:41;;;;;;;5.63;4.40;;;;;;;2.37;100.00;95829.25;5076300;28;20481;-85
2021/03/15 02:19:37;;;;;;;10.50;4.60;;;;;;;2.35;100.00;95821.75;5078747;28;20421;-85
2021/03/15 02:22:31;;;;;;;7.13;5.10;;;;;;;2.35;100.00;95807.75;5080438;28;20870;-85
2021/03/15 02:25:40;;;;;;;5.20;3.97;;;;;;;2.29;100.00;95797.13;5079863;28;20433;-86
2021/03/15 02:28:45;;;;;;;8.13;4.93;;;;;;;2.22;100.00;95802.28;5085606;28;20464;-86
2021/03/15 02:31:28;;;;;;;5.80;4.47;;;;;;;2.17;100.00;95798.44;5101003;28;20441;-85
2021/03/15 02:34:23;;;;;;;8.50;4.57;;;;;;;2.15;100.00;95792.91;5100985;28;20441;-84
2021/03/15 02:36:51;;;;;;;7.10;4.53;;;;;;;2.11;100.00;95792.47;5094229;28;20572;-85
2021/03/15 02:39:22;;;;;;;12.10;5.50;;;;;;;2.10;100.00;95791.75;5079347;28;20851;-85
2021/03/15 02:41:50;;;;;;;6.17;4.20;;;;;;;2.07;100.00;95792.00;5079028;28;20455;-85
2021/03/15 02:44:17;;;;;;;6.03;4.87;;;;;;;2.06;100.00;95788.66;5079885;28;20437;-85
2021/03/15 02:46:46;;;;;;;10.27;4.83;;;;;;;2.15;100.00;95777.69;5080071;28;20548;-86
2021/03/15 02:49:17;;;;;;;11.33;5.10;;;;;;;2.10;100.00;95775.78;5079784;28;20429;-86
2021/03/15 02:51:46;;;;;;;7.60;5.07;;;;;;;2.16;100.00;95776.44;5079089;28;20560;-86
2021/03/15 02:54:14;;;;;;;8.30;4.90;;;;;;;2.13;100.00;95772.13;5078340;28;20529;-85
2021/03/15 02:56:43;;;;;;;5.60;4.37;;;;;;;2.17;100.00;95766.53;5078388;28;20986;-86
2021/03/15 02:59:11;;;;;;;10.10;7.33;;;;;;;2.16;100.00;95773.78;5079212;28;20543;-86
2021/03/15 03:01:39;;;;;;;9.40;5.40;;;;;;;2.16;100.00;95773.78;5079258;28;20452;-87
2021/03/15 03:04:08;;;;;;;10.40;4.90;;;;;;;2.10;100.00;95765.13;5079397;28;20476;-86
2021/03/15 03:06:36;;;;;;;12.30;4.93;;;;;;;2.14;100.00;95759.53;5078732;28;20541;-86
2021/03/15 03:09:05;;;;;;;11.03;5.37;;;;;;;2.16;100.00;95765.81;5079031;28;20528;-86
2021/03/15 03:11:34;;;;;;;9.57;4.90;;;;;;;2.19;100.00;95766.03;5078631;28;21016;-86
2021/03/15 03:14:02;;;;;;;8.40;4.33;;;;;;;2.29;100.00;95751.19;5079119;28;20439;-86
2021/03/15 03:16:33;;;;;;;6.20;5.50;;;;;;;2.26;100.00;95749.50;5078679;28;20821;-86
2021/03/15 03:19:01;;;;;;;9.33;6.17;;;;;;;2.27;100.00;95750.94;5078646;28;20974;-86
2021/03/15 03:21:28;;;;;;;8.47;5.37;;;;;;;2.30;100.00;95742.69;5078771;28;20526;-85
2021/03/15 03:23:58;;;;;;;10.90;5.07;;;;;;;2.47;100.00;95737.19;5078740;28;20604;-86
2021/03/15 03:26:25;;;;;;;9.53;5.13;;;;;;;2.42;100.00;95728.03;5077661;28;20461;-86
2021/03/15 03:28:54;;;;;;;10.23;5.17;;;;;;;2.52;100.00;95720.44;5078058;28;20438;-86
2021/03/15 03:31:21;;;;;;;7.57;4.00;;;;;;;2.51;100.00;95732.28;5078217;28;20906;-86
2021/03/15 03:33:49;;;;;;;9.27;4.73;;;;;;;2.51;100.00;95726.97;5078806;28;20452;-86
2021/03/15 03:36:15;;;;;;;7.00;4.20;;;;;;;2.50;100.00;95723.59;5078730;28;20469;-86
2021/03/15 03:38:42;;;;;;;7.03;4.60;;;;;;;2.47;100.00;95715.91;5077978;28;20567;-86
2021/03/15 03:41:09;;;;;;;8.43;5.17;;;;;;;2.50;100.00;95707.63;5078424;28;20422;-86
2021/03/15 03:43:35;;;;;;;8.17;3.87;;;;;;;2.53;100.00;95703.25;5078588;28;20445;-86
2021/03/15 03:46:02;;;;;;;9.13;3.90;;;;;;;2.61;100.00;95704.84;5077735;28;20465;-86
2021/03/15 03:48:29;;;;;;;12.10;3.97;;;;;;;2.62;100.00;95708.22;5078659;28;20433;-86
2021/03/15 03:50:55;;;;;;;6.67;4.17;;;;;;;2.57;100.00;95709.00;5078006;28;20887;-85
2021/03/15 03:53:25;;;;;;;7.23;4.90;;;;;;;2.72;100.00;95701.31;5078594;28;20529;-86
2021/03/15 03:55:57;;;;;;;4.40;3.23;;;;;;;2.77;100.00;95710.44;5078182;28;20545;-86
2021/03/15 03:58:24;;;;;;;5.23;3.40;;;;;;;2.78;100.00;95709.22;5078600;28;20462;-86
2021/03/15 04:00:53;;;;;;;5.53;3.47;;;;;;;2.83;100.00;95713.75;5077810;28;20463;-86
2021/03/15 04:03:23;;;;;;;5.63;3.57;;;;;;;2.80;100.00;95718.16;5078714;28;20480;-85
2021/03/15 04:05:51;;;;;;;9.33;3.70;;;;;;;2.77;100.00;95718.44;5077945;28;20485;-85
2021/03/15 04:08:23;;;;;;;8.33;3.70;;;;;;;2.81;100.00;95714.28;5078109;28;20438;-84
2021/03/15 04:10:50;;;;;;;10.70;3.50;;;;;;;2.90;100.00;95713.19;5077985;28;20439;-85
2021/03/15 04:13:23;;;;;;;6.30;3.67;;;;;;;2.94;100.00;95716.28;5081629;28;20438;-84
2021/03/15 04:15:49;;;;;;;7.30;3.50;;;;;;;2.88;100.00;95716.34;5098331;28;20466;-86
2021/03/15 04:18:17;;;;;;;5.33;3.43;;;;;;;2.87;100.00;95712.25;5098619;28;20508;-84
2021/03/15 04:20:47;;;;;;;7.50;3.40;;;;;;;2.98;100.00;95706.03;5086737;28;20723;-86
2021/03/15 04:23:17;;;;;;;7.73;3.87;;;;;;;3.05;100.00;95710.81;5078049;28;20455;-86
2021/03/15 04:25:46;;;;;;;5.73;3.70;;;;;;;3.03;100.00;95697.28;5077631;28;20420;-84
2021/03/15 04:28:13;;;;;;;6.70;4.10;;;;;;;3.05;100.00;95706.19;5078484;28;20495;-85
2021/03/15 04:30:41;;;;;;;5.93;3.73;;;;;;;3.11;100.00;95706.13;5077919;28;20582;-86
2021/03/15 04:33:08;;;;;;;11.43;3.77;;;;;;;3.15;100.00;95699.28;5077932;28;20437;-86
2021/03/15 04:35:36;;;;;;;7.07;4.47;;;;;;;3.17;100.00;95699.47;5077950;28;20883;-85
2021/03/15 04:38:05;;;;;;;7.63;3.63;;;;;;;3.11;100.00;95690.84;5077587;28;20477;-85
2021/03/15 04:40:33;;;;;;;5.70;3.07;;;;;;;3.15;100.00;95675.28;5077113;28;20922;-85
2021/03/15 04:43:00;;;;;;;5.57;3.97;;;;;;;3.21;100.00;95673.25;5077013;28;20478;-86
2021/03/15 04:45:27;;;;;;;10.20;3.57;;;;;;;3.29;100.00;95665.38;5076807;28;20441;-87
2021/03/15 04:47:54;;;;;;;17.57;5.17;;;;;;;3.32;100.00;95669.69;5077539;28;20435;-87
2021/03/15 04:50:21;;;;;;;3.93;3.13;;;;;;;3.28;100.00;95665.91;5077047;28;20532;-87
2021/03/15 04:52:48;;;;;;;3.67;3.17;;;;;;;3.24;100.00;95655.53;5076025;28;20555;-86
2021/03/15 04:55:15;;;;;;;4.40;2.90;;;;;;;3.26;100.00;95663.03;5077311;28;20418;-85
2021/03/15 04:57:43;;;;;;;5.73;3.37;;;;;;;3.26;100.00;95655.72;5076986;28;20482;-86
2021/03/15 05:00:13;;;;;;;5.13;3.80;;;;;;;3.36;100.00;95656.06;5077204;28;20463;-86
2021/03/15 05:02:42;;;;;;;5.50;3.90;;;;;;;3.37;100.00;95652.91;5077643;28;20442;-86
2021/03/15 05:05:10;;;;;;;13.63;3.40;;;;;;;3.33;100.00;95649.81;5077361;28;20501;-87
2021/03/15 05:07:40;;;;;;;9.70;3.80;;;;;;;3.34;100.00;95651.25;5077088;28;20940;-86
2021/03/15 05:10:08;;;;;;;8.63;3.70;;;;;;;3.33;100.00;95647.16;5076608;28;20446;-86
2021/03/15 05:12:35;;;;;;;4.03;2.73;;;;;;;3.41;100.00;95642.66;5076855;28;20408;-85
2021/03/15 05:15:06;;;;;;;5.27;3.50;;;;;;;3.45;100.00;95642.34;5076513;28;20867;-85
2021/03/15 05:17:32;;;;;;;5.60;3.60;;;;;;;3.39;100.00;95641.72;5076856;28;20477;-86
2021/03/15 05:19:58;;;;;;;5.00;3.40;;;;;;;3.46;100.00;95639.19;5077112;28;20532;-85
2021/03/15 05:22:25;;;;;;;5.27;2.90;;;;;;;3.46;100.00;95630.47;5081760;28;20485;-86
2021/03/15 05:24:51;;;;;;;6.00;2.67;;;;;;;3.45;100.00;95635.06;5098206;28;20396;-85
2021/03/15 05:27:18;;;;;;;5.50;3.30;;;;;;;3.47;100.00;95624.63;5098036;28;20445;-84
2021/03/15 05:29:48;;;;;;;4.80;2.90;;;;;;;3.55;100.00;95630.06;5097976;28;20416;-83
2021/03/15 05:32:16;;;;;;;7.53;4.00;;;;;;;3.48;100.00;95625.31;5089835;28;20453;-85
2021/03/15 05:34:43;;;;;;;5.80;2.80;;;;;;;3.48;100.00;95628.72;5077836;28;20441;-85
2021/03/15 05:37:10;;;;;;;4.13;2.60;;;;;;;3.50;100.00;95620.22;5078054;28;20631;-86
2021/03/15 05:39:37;;;;;;;7.27;3.30;;;;;;;3.41;100.00;95616.00;5079058;28;20460;-86
2021/03/15 05:42:25;;;;;;;6.67;3.57;;;;;;;3.33;100.00;95607.16;5079146;28;20536;-86
2021/03/15 05:45:10;;;;;;;8.97;3.53;;;;;;;3.44;100.00;95606.25;5079306;28;20475;-86
2021/03/15 05:48:12;;;;;;;4.90;3.40;;;;;;;3.38;100.00;95598.38;5078503;28;20494;-87
2021/03/15 05:51:03;;;;;;;7.93;3.13;;;;;;;3.42;100.00;95595.38;5079825;28;20902;-86
2021/03/15 05:53:51;;;;;;;6.10;2.77;;;;;;;3.39;100.00;95591.06;5079300;28;20439;-86
2021/03/15 05:56:31;;;;;;;8.30;4.30;;;;;;;3.41;100.00;95588.63;5081875;28;20806;-85
2021/03/15 05:59:10;;;;;;;6.53;2.77;;;;;;;3.50;100.00;95580.94;5082028;28;20422;-86
2021/03/15 06:01:49;;;;;;;7.90;3.10;;;;;;;3.45;100.00;95579.06;5081671;28;20443;-86
2021/03/15 06:04:38;;;;;;;7.70;3.27;;;;;;;3.42;100.00;95574.03;5082830;28;20400;-86
2021/03/15 06:07:08;;;;;;;4.27;2.40;;;;;;;3.44;100.00;95576.94;5082342;28;20796;-86
2021/03/15 06:09:41;;;;;;;3.30;2.43;;;;;;;3.39;100.00;95567.06;5082497;28;20468;-86
2021/03/15 06:12:16;;;;;;;3.00;2.23;;;;;;;3.44;100.00;95567.00;5081645;28;20482;-87
2021/03/15 06:14:43;;;;;;;12.73;3.20;;;;;;;3.35;100.00;95561.34;5082528;28;20431;-87
2021/03/15 06:17:11;;;;;;;4.77;2.63;;;;;;;3.41;100.00;95559.28;5081987;28;20851;-88
2021/03/15 06:19:37;;;;;;;3.00;2.53;;;;;;;3.34;100.00;95557.97;5082349;28;20540;-87
2021/03/15 06:22:04;;;;;;;4.97;2.67;;;;;;;3.43;100.00;95554.88;5083521;28;20412;-87
2021/03/15 06:24:31;;;;;;;4.83;3.00;;;;;;;3.39;100.00;95549.13;5083073;28;20532;-87
2021/03/15 06:26:57;;;;;;;6.07;3.80;;;;;;;3.46;100.00;95547.81;5083645;28;21056;-88
2021/03/15 06:29:24;;;;;;;6.50;3.10;;;;;;;3.53;100.00;95549.88;5082609;28;20426;-87
2021/03/15 06:31:51;;;;;;;9.03;3.50;;;;;;;3.44;100.00;95545.66;5083609;28;20566;-88
2021/03/15 06:34:20;;;;;;;4.50;3.10;;;;;;;3.50;100.00;95545.56;5083920;28;20430;-87
2021/03/15 06:36:47;;;;;;;9.20;2.90;;;;;;;3.51;100.00;95529.03;5083427;28;20432;-87
2021/03/15 06:39:16;;;;;;;5.20;3.67;;;;;;;3.40;100.00;95531.91;5083910;28;20440;-87
2021/03/15 06:41:43;;;;;;;5.97;2.50;;;;;;;3.44;100.00;95521.66;5082510;28;20457;-87
2021/03/15 06:44:10;;;;;;;6.97;2.97;;;;;;;3.43;100.00;95519.50;5081076;28;20521;-87
2021/03/15 06:46:37;;;;;;;7.30;2.90;;;;;;;3.44;100.00;95515.63;5082240;28;20474;-87
2021/03/15 06:49:03;;;;;;;7.80;3.47;;;;;;;3.33;100.00;95521.13;5082914;28;20528;-86
2021/03/15 06:51:30;;;;;;;10.67;3.30;;;;;;;3.44;100.00;95526.28;5082193;28;20870;-86
2021/03/15 06:53:56;;;;;;;5.90;3.40;;;;;;;3.59;100.00;95529.88;5082149;28;20449;-86
2021/03/15 06:56:24;;;;;;;4.03;2.83;;;;;;;4.03;100.00;95525.59;5083877;28;20465;-86
2021/03/15 06:58:51;;;;;;;6.30;2.97;;;;;;;3.94;100.00;95518.03;5084443;28;20477;-91
2021/03/15 07:01:20;;;;;;;7.17;3.30;;;;;;;3.82;100.00;95514.16;5084213;28;20449;-91
2021/03/15 07:03:48;;;;;;;3.30;2.70;;;;;;;3.91;100.00;95508.41;5091873;28;20559;-91
2021/03/15 07:06:18;;;;;;;3.90;2.40;;;;;;;3.90;100.00;95514.94;5093655;28;20496;-88
2021/03/15 07:08:47;;;;;;;4.10;2.77;;;;;;;3.82;100.00;95514.16;5085076;28;20445;-91
2021/03/15 07:11:19;;;;;;;2.93;2.40;;;;;;;3.80;100.00;95519.28;5081498;28;20475;-86
2021/03/15 07:13:45;;;;;;;3.30;2.40;;;;;;;3.86;100.00;95514.53;5082096;28;20464;-87
2021/03/15 07:16:28;;;;;;;3.90;2.80;;;;;;;3.94;100.00;95515.38;5082635;28;20469;-87
2021/03/15 07:18:55;;;;;;;2.70;2.10;;;;;;;3.93;100.00;95511.25;5080291;28;20489;-87
2021/03/15 07:21:35;;;;;;;6.10;2.23;;;;;;;4.03;99.91;95514.94;5083371;28;20529;-87
2021/03/15 07:24:03;;;;;;;5.80;2.70;;;;;;;4.14;99.03;95513.97;5084692;28;20525;-90
2021/03/15 07:26:30;;;;;;;3.27;2.23;;;;;;;4.15;99.02;95520.75;5085690;28;20476;-90
2021/03/15 07:28:57;;;;;;;3.30;2.50;;;;;;;4.11;99.29;95523.72;5084320;28;20873;-88
2021/03/15 07:31:25;;;;;;;6.27;2.80;;;;;;;4.10;99.15;95529.59;5083431;28;20404;-86
2021/03/15 07:34:13;;;;;;;4.07;2.50;;;;;;;3.95;99.78;95524.78;5082363;28;20469;-85
2021/03/15 07:36:50;;;;;;;2.50;2.10;;;;;;;3.91;100.00;95531.69;5081752;28;20465;-86
2021/03/15 07:39:19;;;;;;;2.60;1.80;;;;;;;4.00;99.67;95533.94;5082746;28;20453;-86
2021/03/15 07:41:46;;;;;;;4.43;2.20;;;;;;;3.95;98.94;95535.47;5082082;28;20480;-85
2021/03/15 07:44:28;;;;;;;2.50;2.30;;;;;;;3.69;98.07;95544.22;5081608;28;20469;-87
2021/03/15 07:46:55;;;;;;;3.57;2.90;;;;;;;3.53;98.39;95528.53;5081860;28;20829;-87
2021/03/15 07:49:30;;;;;;;2.23;1.37;;;;;;;3.40;98.66;95517.84;5083958;28;20481;-92
2021/03/15 07:52:00;;;;;;;5.63;1.67;;;;;;;3.39;98.52;95517.13;5086682;28;20432;-90
2021/03/15 07:54:29;;;;;;;2.90;1.70;;;;;;;3.33;98.51;95513.84;5083159;28;20966;-86
2021/03/15 07:57:18;;;;;;;7.30;2.00;;;;;;;3.33;98.90;95511.19;5082984;28;20494;-87
2021/03/15 07:59:46;;;;;;;1.40;1.30;;;;;;;3.36;99.37;95506.78;5087098;28;20429;-92
2021/03/15 08:02:18;;;;;;;4.63;2.00;;;;;;;3.39;100.00;95506.47;5087966;28;20509;-91
2021/03/15 08:04:44;;;;;;;3.77;1.90;;;;;;;3.49;99.98;95510.16;5087739;28;20414;-91
2021/03/15 08:07:12;;;;;;;4.07;1.83;;;;;;;3.56;100.00;95519.50;5084593;28;20840;-90
2021/03/15 08:09:44;;;;;;;3.30;1.93;;;;;;;3.56;100.00;95520.22;5084868;28;20437;-91
2021/03/15 08:12:11;;;;;;;5.00;2.80;;;;;;;3.53;100.00;95510.59;5084970;28;20404;-92
2021/03/15 08:14:42;;;;;;;2.20;2.00;;;;;;;3.62;100.00;95518.16;5086075;28;20400;-89
2021/03/15 08:17:12;;;;;;;2.57;2.17;;;;;;;3.77;100.00;95525.63;5088472;28;20519;-89
2021/03/15 08:19:40;;;;;;;3.10;1.97;;;;;;;3.84;100.00;95521.63;5098495;28;20402;-92
2021/03/15 08:22:27;;;;;;;4.07;2.43;;;;;;;4.06;100.00;95537.91;5098664;28;20409;-89
2021/03/15 08:24:57;;;;;;;4.70;1.70;;;;;;;4.09;100.00;95534.22;5098788;28;20394;-90
2021/03/15 08:27:27;;;;;;;3.40;2.43;;;;;;;4.13;100.00;95531.97;5095574;28;20466;-90
2021/03/15 08:29:57;;;;;;;2.20;2.00;;;;;;;4.22;99.98;95528.84;5081975;28;20894;-91
2021/03/15 08:32:25;;;;;;;2.70;2.00;;;;;;;4.31;99.37;95525.75;5079855;28;20433;-88
2021/03/15 08:34:53;;;;;;;2.57;1.93;;;;;;;4.48;100.00;95528.03;5088694;28;20441;-93
2021/03/15 08:37:51;;;;;;;3.30;2.37;;;;;;;4.67;98.98;95525.91;5085986;28;20460;-94
2021/03/15 08:40:50;;;;;;;2.10;1.50;;;;;;;4.65;99.69;95544.41;5086395;28;20515;-94
2021/03/15 08:43:29;;;;;;;1.50;1.20;;;;;;;4.81;99.83;95539.94;5087000;28;20902;-91
2021/03/15 08:45:57;;;;;;;2.30;1.33;;;;;;;4.81;98.71;95542.59;5087956;28;20436;-89
2021/03/15 08:48:48;;;;;;;2.20;1.13;;;;;;;4.84;98.41;95542.28;5090254;28;20457;-90
2021/03/15 08:51:20;;;;;;;1.93;1.30;;;;;;;4.80;98.37;95547.22;5080939;28;20436;-88
2021/03/15 08:53:52;;;;;;;1.00;1.00;;;;;;;4.80;98.35;95541.16;5082111;28;20873;-90
2021/03/15 08:56:40;;;;;;;3.13;1.00;;;;;;;4.84;98.64;95546.91;5083231;28;20451;-90
2021/03/15 08:59:40;;;;;;;1.00;0.90;;;;;;;4.92;98.87;95553.00;5076078;28;20575;-92
2021/03/15 09:02:13;;;;;;;1.50;1.00;;;;;;;4.72;98.99;95556.41;5064095;28;20442;-93
2021/03/15 09:04:45;;;;;;;1.90;1.00;;;;;;;4.65;98.32;95552.44;5083454;28;20421;-92
2021/03/15 09:07:32;;;;;;;1.83;1.00;;;;;;;4.68;99.26;95559.41;5082501;28;20525;-90
2021/03/15 09:10:19;;;;;;;3.40;1.50;;;;;;;4.72;99.62;95554.47;5081516;28;20447;-92
2021/03/15 09:13:33;;;;;;;2.50;1.03;;;;;;;4.84;99.36;95555.63;5081816;28;20520;-90
2021/03/15 09:16:06;;;;;;;1.40;1.03;;;;;;;4.85;99.04;95545.66;5085541;28;20477;-90
2021/03/15 09:18:51;;;;;;;1.10;0.77;;;;;;;4.79;99.09;95564.47;5084851;28;20474;-88
2021/03/15 09:21:46;;;;;;;2.40;0.77;;;;;;;4.90;99.60;95558.19;5090028;28;20448;-89
2021/03/15 09:24:38;;;;;;;1.50;1.10;;;;;;;4.90;99.91;95571.53;5072946;28;20937;-91
2021/03/15 09:27:07;;;;;;;4.80;2.30;;;;;;;4.96;99.99;95561.44;5062991;28;20470;-90
2021/03/15 09:29:34;;;;;;;3.83;2.27;;;;;;;5.08;99.31;95564.56;5064937;28;20431;-88
2021/03/15 09:32:02;;;;;;;2.03;1.23;;;;;;;5.06;98.57;95562.41;5069056;28;20446;-90
2021/03/15 09:34:29;;;;;;;1.90;1.10;;;;;;;5.02;98.63;95564.69;5069952;28;20794;-92
2021/03/15 09:36:56;;;;;;;3.47;0.90;;;;;;;5.07;99.67;95563.84;5069102;28;20509;-92
2021/03/15 09:39:23;;;;;;;1.00;0.90;;;;;;;5.15;99.47;95564.63;5072876;28;20438;-92
2021/03/15 09:41:50;;;;;;;1.53;1.00;;;;;;;5.31;99.13;95570.81;5072599;28;20450;-89
2021/03/15 09:44:22;;;;;;;1.90;0.90;;;;;;;5.30;99.22;95572.75;5080543;28;20413;-88
2021/03/15 09:46:50;;;;;;;3.63;1.17;;;;;;;5.47;99.45;95572.34;5070549;28;20441;-90
2021/03/15 09:52:28;;;;;;;1.97;1.07;;;;;;;5.64;98.42;95579.97;5140403;27;20500;-88
2021/03/15 09:54:57;;;;;;;4.07;1.27;;;;;;;5.59;98.38;95578.84;5142668;27;20460;-89
2021/03/15 09:57:25;;;;;;;2.80;1.40;;;;;;;5.75;98.67;95580.38;5147017;27;20468;-88
2021/03/15 10:00:04;;;;;;;3.50;1.10;;;;;;;5.77;98.41;95585.19;5148844;27;20467;-88
2021/03/15 10:02:30;;;;;;;2.53;1.37;;;;;;;5.72;98.19;95580.72;5156800;27;20472;-86
2021/03/15 10:04:57;;;;;;;2.60;2.07;;;;;;;5.67;98.76;95582.28;5156498;27;20422;-93
2021/03/15 10:07:23;;;;;;;1.87;1.33;;;;;;;5.70;99.66;95586.56;5146287;27;20485;-91
2021/03/15 10:09:50;;;;;;;1.70;1.30;;;;;;;5.75;99.21;95576.97;5140946;27;20863;-92
2021/03/15 10:12:21;;;;;;;2.40;1.80;;;;;;;5.91;98.80;95583.88;5145252;27;20456;-93
2021/03/15 10:14:59;;;;;;;2.77;2.00;;;;;;;5.91;98.43;95578.53;5146798;27;20812;-93
2021/03/15 10:17:25;;;;;;;1.90;1.20;;;;;;;5.84;98.54;95590.59;5141377;27;20424;-88
2021/03/15 10:19:52;;;;;;;2.70;2.00;;;;;;;5.96;98.57;95587.66;5139243;27;20473;-89
2021/03/15 10:22:20;;;;;;;3.70;1.90;;;;;;;5.93;98.61;95589.41;5139208;27;20428;-89
2021/03/15 10:24:49;;;;;;;1.80;1.30;;;;;;;5.83;98.99;95589.16;5142058;27;20441;-91
2021/03/15 10:27:18;;;;;;;2.80;1.93;;;;;;;5.75;98.66;95593.03;5142794;27;20458;-89
2021/03/15 10:29:55;;;;;;;2.37;1.70;;;;;;;5.84;98.77;95601.31;5141112;27;20427;-90
2021/03/15 10:32:26;;;;;;;5.50;2.03;;;;;;;5.81;98.80;95598.97;5130538;27;20476;-93
2021/03/15 10:35:03;;;;;;;1.87;1.67;;;;;;;5.81;97.96;95598.97;5134657;28;20410;-93
2021/03/15 10:37:33;;;;;;;2.43;1.50;;;;;;;5.82;98.70;95608.44;5129423;28;20611;-92
2021/03/15 10:40:00;;;;;;;2.60;1.83;;;;;;;5.74;99.27;95604.97;5126074;28;20866;-93
2021/03/15 10:42:31;;;;;;;3.83;2.10;;;;;;;5.89;98.92;95610.44;5128020;28;20424;-95
2021/03/15 10:44:57;;;;;;;2.00;1.73;;;;;;;5.93;98.18;95618.88;5130577;28;20439;-93
2021/03/15 10:47:28;;;;;;;1.93;1.73;;;;;;;5.77;98.81;95609.28;5126309;28;20430;-94
2021/03/15 10:49:55;;;;;;;5.37;2.10;;;;;;;5.87;98.62;95613.66;5125316;28;20439;-90
2021/03/15 10:52:38;;;;;;;3.00;2.07;;;;;;;5.85;98.60;95615.41;5130267;28;20518;-93
2021/03/15 10:55:14;;;;;;;2.17;1.60;;;;;;;6.01;98.31;95621.59;5126201;28;20464;-91
2021/03/15 10:57:59;;;;;;;1.40;1.30;;;;;;;5.93;96.37;95618.88;5123981;28;20407;-90
2021/03/15 11:00:41;;;;;;;2.40;1.30;;;;;;;5.95;97.57;95623.72;5125938;28;20474;-94
2021/03/15 11:03:19;;;;;;;2.83;1.87;;;;;;;6.14;96.52;95618.81;5115403;28;20380;-93
2021/03/15 11:05:47;;;;;;;1.73;1.47;;;;;;;6.41;98.19;95620.00;5112189;28;20471;-92
2021/03/15 11:08:19;;;;;;;2.17;1.63;;;;;;;6.54;97.22;95621.84;5111611;28;20422;-91
2021/03/15 11:10:48;;;;;;;2.00;1.53;;;;;;;6.77;97.70;95619.94;5114560;28;20447;-91
2021/03/15 11:13:18;;;;;;;1.90;1.63;;;;;;;6.65;95.14;95629.56;5112168;28;20428;-92
2021/03/15 11:15:45;;;;;;;2.43;1.57;;;;;;;6.55;95.87;95632.03;5108960;28;20521;-93
2021/03/15 11:18:19;;;;;;;1.47;1.37;;;;;;;6.63;94.13;95626.69;5106374;28;20425;-93
2021/03/15 11:20:51;;;;;;;1.83;1.30;;;;;;;6.57;94.07;95628.81;5120134;28;20453;-90
2021/03/15 11:23:30;;;;;;;1.70;1.13;;;;;;;6.62;94.98;95636.69;5120593;28;20413;-91
2021/03/15 11:26:01;;;;;;;2.70;1.23;;;;;;;6.73;95.15;95649.78;5120812;28;20532;-88
2021/03/15 11:28:33;;;;;;;8.53;2.87;;;;;;;6.81;95.28;95647.84;5113511;28;20411;-91
2021/03/15 11:31:00;;;;;;;2.10;1.70;;;;;;;6.87;94.17;95651.06;5106388;28;20460;-91
2021/03/15 11:33:28;;;;;;;1.90;1.60;;;;;;;6.73;91.93;95652.47;5106478;28;20403;-92
2021/03/15 11:35:57;;;;;;;3.47;1.53;;;;;;;6.82;92.41;95651.25;5110652;28;20442;-93
2021/03/15 11:38:24;;;;;;;2.10;1.37;;;;;;;6.82;91.17;95654.66;5109793;28;20506;-91
2021/03/15 11:40:52;;;;;;;3.03;1.63;;;;;;;6.62;91.68;95657.41;5122956;28;20493;-89
2021/03/15 11:43:20;;;;;;;2.20;1.40;;;;;;;6.74;91.76;95650.50;5123422;28;20470;-88
2021/03/15 11:45:48;;;;;;;1.73;1.50;;;;;;;6.76;92.14;95664.09;5126265;28;20459;-90
2021/03/15 11:48:34;;;;;;;1.67;1.57;;;;;;;6.73;91.82;95657.84;5126273;28;20497;-92
2021/03/15 11:51:00;;;;;;;4.83;2.53;;;;;;;6.93;91.89;95656.28;5128397;28;20479;-87
2021/03/15 11:53:29;;;;;;;2.00;1.80;;;;;;;6.66;90.42;95655.84;5124778;28;20454;-88
2021/03/15 11:55:55;;;;;;;3.07;2.03;;;;;;;6.64;91.32;95654.94;5123397;28;20445;-89
2021/03/15 11:58:21;;;;;;;1.90;1.70;;;;;;;6.69;90.92;95656.75;5122768;28;20538;-87